sensor_id;sensor_type;location;lat;lon;timestamp;P1;durP1;ratioP1;P2;durP2;ratioP2
23288;SDS011;11813;50.834;4.280;2022-12-07T00:02:22;17.33;;;11.60;;
23288;SDS011;11813;50.834;4.280;2022-12-07T00:04:48;18.60;;;12.83;;
23288;SDS011;11813;50.834;4.280;2022-12-07T00:07:14;22.50;;;12.10;;
23288;SDS011;11813;50.834;4.280;2022-12-07T00:09:40;19.37;;;12.53;;
23288;SDS011;11813;50.834;4.280;2022-12-07T00:12:06;20.33;;;11.63;;
23288;SDS011;11813;50.834;4.280;2022-12-07T00:14:33;17.97;;;11.83;;
23288;SDS011;11813;50.834;4.280;2022-12-07T00:16:58;19.57;;;12.17;;
23288;SDS011;11813;50.834;4.280;2022-12-07T00:19:24;17.87;;;11.77;;
23288;SDS011;11813;50.834;4.280;2022-12-07T00:21:49;16.33;;;11.27;;
23288;SDS011;11813;50.834;4.280;2022-12-07T00:24:15;16.67;;;11.47;;
23288;SDS011;11813;50.834;4.280;2022-12-07T00:26:41;18.80;;;11.60;;
23288;SDS011;11813;50.834;4.280;2022-12-07T00:29:13;16.43;;;11.67;;
23288;SDS011;11813;50.834;4.280;2022-12-07T00:31:45;19.40;;;12.37;;
23288;SDS011;11813;50.834;4.280;2022-12-07T00:34:15;19.77;;;13.03;;
23288;SDS011;11813;50.834;4.280;2022-12-07T00:36:42;30.70;;;14.80;;
23288;SDS011;11813;50.834;4.280;2022-12-07T00:39:08;20.57;;;12.17;;
23288;SDS011;11813;50.834;4.280;2022-12-07T00:41:34;22.07;;;12.70;;
23288;SDS011;11813;50.834;4.280;2022-12-07T00:43:59;21.20;;;11.67;;
23288;SDS011;11813;50.834;4.280;2022-12-07T00:46:25;16.53;;;11.03;;
23288;SDS011;11813;50.834;4.280;2022-12-07T00:48:52;16.03;;;10.77;;
23288;SDS011;11813;50.834;4.280;2022-12-07T00:51:20;16.77;;;11.43;;
23288;SDS011;11813;50.834;4.280;2022-12-07T00:53:48;15.73;;;10.10;;
23288;SDS011;11813;50.834;4.280;2022-12-07T00:56:19;17.93;;;11.10;;
23288;SDS011;11813;50.834;4.280;2022-12-07T00:58:54;20.30;;;14.00;;
23288;SDS011;11813;50.834;4.280;2022-12-07T01:01:28;20.57;;;12.83;;
23288;SDS011;11813;50.834;4.280;2022-12-07T01:03:56;23.53;;;14.03;;
23288;SDS011;11813;50.834;4.280;2022-12-07T01:06:22;21.23;;;13.60;;
23288;SDS011;11813;50.834;4.280;2022-12-07T01:08:49;23.80;;;13.83;;
23288;SDS011;11813;50.834;4.280;2022-12-07T01:11:16;20.83;;;13.97;;
23288;SDS011;11813;50.834;4.280;2022-12-07T01:13:44;21.37;;;14.13;;
23288;SDS011;11813;50.834;4.280;2022-12-07T01:16:11;21.13;;;14.13;;
23288;SDS011;11813;50.834;4.280;2022-12-07T01:18:38;22.00;;;13.70;;
23288;SDS011;11813;50.834;4.280;2022-12-07T01:21:06;21.10;;;13.53;;
23288;SDS011;11813;50.834;4.280;2022-12-07T01:23:32;21.43;;;13.87;;
23288;SDS011;11813;50.834;4.280;2022-12-07T01:25:59;22.67;;;13.73;;
23288;SDS011;11813;50.834;4.280;2022-12-07T01:28:26;21.93;;;13.73;;
23288;SDS011;11813;50.834;4.280;2022-12-07T01:31:11;27.67;;;13.90;;
23288;SDS011;11813;50.834;4.280;2022-12-07T01:33:42;22.07;;;15.07;;
23288;SDS011;11813;50.834;4.280;2022-12-07T01:36:17;19.73;;;14.37;;
23288;SDS011;11813;50.834;4.280;2022-12-07T01:38:46;23.23;;;13.33;;
23288;SDS011;11813;50.834;4.280;2022-12-07T01:41:14;19.03;;;13.23;;
23288;SDS011;11813;50.834;4.280;2022-12-07T01:46:44;18.90;;;12.27;;
23288;SDS011;11813;50.834;4.280;2022-12-07T01:49:25;19.10;;;12.30;;
23288;SDS011;11813;50.834;4.280;2022-12-07T01:52:19;21.60;;;13.13;;
23288;SDS011;11813;50.834;4.280;2022-12-07T01:54:51;20.80;;;13.13;;
23288;SDS011;11813;50.834;4.280;2022-12-07T01:57:22;17.23;;;12.67;;
23288;SDS011;11813;50.834;4.280;2022-12-07T01:59:48;18.23;;;12.50;;
23288;SDS011;11813;50.834;4.280;2022-12-07T02:02:38;18.20;;;12.43;;
23288;SDS011;11813;50.834;4.280;2022-12-07T02:05:08;19.90;;;12.70;;
23288;SDS011;11813;50.834;4.280;2022-12-07T02:07:35;23.73;;;13.97;;
23288;SDS011;11813;50.834;4.280;2022-12-07T02:10:12;20.23;;;12.60;;
23288;SDS011;11813;50.834;4.280;2022-12-07T02:12:49;19.90;;;13.00;;
23288;SDS011;11813;50.834;4.280;2022-12-07T02:15:18;18.30;;;12.43;;
23288;SDS011;11813;50.834;4.280;2022-12-07T02:17:51;24.87;;;14.07;;
23288;SDS011;11813;50.834;4.280;2022-12-07T02:31:34;25.73;;;14.67;;
23288;SDS011;11813;50.834;4.280;2022-12-07T02:34:14;20.10;;;13.23;;
23288;SDS011;11813;50.834;4.280;2022-12-07T02:36:50;22.30;;;14.10;;
23288;SDS011;11813;50.834;4.280;2022-12-07T02:39:23;21.30;;;13.10;;
23288;SDS011;11813;50.834;4.280;2022-12-07T02:42:02;24.57;;;14.53;;
23288;SDS011;11813;50.834;4.280;2022-12-07T02:44:37;23.17;;;14.27;;
23288;SDS011;11813;50.834;4.280;2022-12-07T02:47:05;21.80;;;14.30;;
23288;SDS011;11813;50.834;4.280;2022-12-07T02:49:34;23.03;;;14.50;;
23288;SDS011;11813;50.834;4.280;2022-12-07T02:52:03;25.37;;;14.13;;
23288;SDS011;11813;50.834;4.280;2022-12-07T02:54:29;22.80;;;13.90;;
23288;SDS011;11813;50.834;4.280;2022-12-07T02:56:57;24.17;;;14.37;;
23288;SDS011;11813;50.834;4.280;2022-12-07T02:59:43;24.47;;;14.87;;
23288;SDS011;11813;50.834;4.280;2022-12-07T03:02:42;28.97;;;14.70;;
23288;SDS011;11813;50.834;4.280;2022-12-07T03:05:24;21.73;;;13.23;;
23288;SDS011;11813;50.834;4.280;2022-12-07T03:08:11;21.80;;;13.53;;
23288;SDS011;11813;50.834;4.280;2022-12-07T03:13:41;21.27;;;12.90;;
23288;SDS011;11813;50.834;4.280;2022-12-07T03:16:27;21.33;;;13.00;;
23288;SDS011;11813;50.834;4.280;2022-12-07T03:19:02;18.60;;;11.77;;
23288;SDS011;11813;50.834;4.280;2022-12-07T03:21:41;17.97;;;12.67;;
23288;SDS011;11813;50.834;4.280;2022-12-07T03:24:44;20.53;;;13.10;;
23288;SDS011;11813;50.834;4.280;2022-12-07T03:27:09;22.93;;;11.70;;
23288;SDS011;11813;50.834;4.280;2022-12-07T03:29:44;25.37;;;12.70;;
23288;SDS011;11813;50.834;4.280;2022-12-07T03:32:15;140.83;;;15.67;;
23288;SDS011;11813;50.834;4.280;2022-12-07T03:34:53;43.23;;;13.37;;
23288;SDS011;11813;50.834;4.280;2022-12-07T03:37:36;36.23;;;13.40;;
23288;SDS011;11813;50.834;4.280;2022-12-07T03:40:29;21.53;;;12.20;;
23288;SDS011;11813;50.834;4.280;2022-12-07T03:43:05;20.67;;;12.67;;
23288;SDS011;11813;50.834;4.280;2022-12-07T03:48:10;24.70;;;13.50;;
23288;SDS011;11813;50.834;4.280;2022-12-07T03:50:46;20.60;;;13.17;;
23288;SDS011;11813;50.834;4.280;2022-12-07T03:53:17;21.53;;;13.93;;
23288;SDS011;11813;50.834;4.280;2022-12-07T03:55:46;16.23;;;11.17;;
23288;SDS011;11813;50.834;4.280;2022-12-07T03:58:15;17.60;;;12.00;;
23288;SDS011;11813;50.834;4.280;2022-12-07T04:00:43;20.90;;;11.90;;
23288;SDS011;11813;50.834;4.280;2022-12-07T04:03:11;17.53;;;11.13;;
23288;SDS011;11813;50.834;4.280;2022-12-07T04:05:37;22.63;;;11.20;;
23288;SDS011;11813;50.834;4.280;2022-12-07T04:08:04;67.37;;;12.47;;
23288;SDS011;11813;50.834;4.280;2022-12-07T04:10:29;91.80;;;13.07;;
23288;SDS011;11813;50.834;4.280;2022-12-07T04:12:55;42.40;;;12.50;;
23288;SDS011;11813;50.834;4.280;2022-12-07T04:15:21;28.93;;;11.37;;
23288;SDS011;11813;50.834;4.280;2022-12-07T04:17:46;15.87;;;10.13;;
23288;SDS011;11813;50.834;4.280;2022-12-07T04:20:12;15.47;;;10.53;;
23288;SDS011;11813;50.834;4.280;2022-12-07T04:22:38;14.47;;;10.53;;
23288;SDS011;11813;50.834;4.280;2022-12-07T04:25:04;211.07;;;16.43;;
23288;SDS011;11813;50.834;4.280;2022-12-07T04:27:30;100.07;;;13.13;;
23288;SDS011;11813;50.834;4.280;2022-12-07T04:29:55;73.97;;;12.60;;
23288;SDS011;11813;50.834;4.280;2022-12-07T04:32:21;21.60;;;11.50;;
23288;SDS011;11813;50.834;4.280;2022-12-07T04:34:47;18.37;;;10.47;;
23288;SDS011;11813;50.834;4.280;2022-12-07T04:37:13;14.47;;;10.90;;
23288;SDS011;11813;50.834;4.280;2022-12-07T04:39:38;16.73;;;10.67;;
23288;SDS011;11813;50.834;4.280;2022-12-07T04:42:04;22.47;;;10.63;;
23288;SDS011;11813;50.834;4.280;2022-12-07T04:44:30;52.93;;;13.20;;
23288;SDS011;11813;50.834;4.280;2022-12-07T04:46:55;27.50;;;10.50;;
23288;SDS011;11813;50.834;4.280;2022-12-07T04:49:22;62.10;;;11.07;;
23288;SDS011;11813;50.834;4.280;2022-12-07T04:51:49;48.13;;;10.93;;
23288;SDS011;11813;50.834;4.280;2022-12-07T04:54:15;22.77;;;10.83;;
23288;SDS011;11813;50.834;4.280;2022-12-07T04:56:41;19.10;;;11.17;;
23288;SDS011;11813;50.834;4.280;2022-12-07T04:59:07;21.07;;;11.40;;
23288;SDS011;11813;50.834;4.280;2022-12-07T05:01:34;19.63;;;11.77;;
23288;SDS011;11813;50.834;4.280;2022-12-07T05:04:00;16.30;;;12.13;;
23288;SDS011;11813;50.834;4.280;2022-12-07T05:06:26;19.03;;;11.43;;
23288;SDS011;11813;50.834;4.280;2022-12-07T05:08:52;19.67;;;12.07;;
23288;SDS011;11813;50.834;4.280;2022-12-07T05:11:18;18.87;;;11.87;;
23288;SDS011;11813;50.834;4.280;2022-12-07T05:14:02;77.63;;;12.40;;
23288;SDS011;11813;50.834;4.280;2022-12-07T05:16:32;129.20;;;13.97;;
23288;SDS011;11813;50.834;4.280;2022-12-07T05:18:58;13.73;;;10.03;;
23288;SDS011;11813;50.834;4.280;2022-12-07T05:21:24;14.20;;;10.40;;
23288;SDS011;11813;50.834;4.280;2022-12-07T05:23:50;14.57;;;10.67;;
23288;SDS011;11813;50.834;4.280;2022-12-07T05:26:15;19.33;;;12.47;;
23288;SDS011;11813;50.834;4.280;2022-12-07T05:28:41;17.33;;;10.47;;
23288;SDS011;11813;50.834;4.280;2022-12-07T05:31:07;30.17;;;12.40;;
23288;SDS011;11813;50.834;4.280;2022-12-07T05:33:33;150.20;;;12.80;;
23288;SDS011;11813;50.834;4.280;2022-12-07T05:35:58;145.57;;;12.17;;
23288;SDS011;11813;50.834;4.280;2022-12-07T05:38:30;102.20;;;11.63;;
23288;SDS011;11813;50.834;4.280;2022-12-07T05:41:02;81.87;;;10.73;;
23288;SDS011;11813;50.834;4.280;2022-12-07T05:43:30;43.63;;;10.73;;
23288;SDS011;11813;50.834;4.280;2022-12-07T05:45:57;18.13;;;10.03;;
23288;SDS011;11813;50.834;4.280;2022-12-07T05:48:23;20.63;;;11.30;;
23288;SDS011;11813;50.834;4.280;2022-12-07T05:50:49;24.30;;;10.40;;
23288;SDS011;11813;50.834;4.280;2022-12-07T05:53:16;34.87;;;12.40;;
23288;SDS011;11813;50.834;4.280;2022-12-07T05:55:43;25.77;;;11.70;;
23288;SDS011;11813;50.834;4.280;2022-12-07T05:58:08;16.37;;;11.10;;
23288;SDS011;11813;50.834;4.280;2022-12-07T06:00:56;20.87;;;11.03;;
23288;SDS011;11813;50.834;4.280;2022-12-07T06:03:21;18.73;;;11.30;;
23288;SDS011;11813;50.834;4.280;2022-12-07T06:05:47;20.80;;;11.23;;
23288;SDS011;11813;50.834;4.280;2022-12-07T06:08:13;17.17;;;10.90;;
23288;SDS011;11813;50.834;4.280;2022-12-07T06:10:40;47.90;;;13.33;;
23288;SDS011;11813;50.834;4.280;2022-12-07T06:13:06;33.93;;;13.33;;
23288;SDS011;11813;50.834;4.280;2022-12-07T06:15:33;28.07;;;12.37;;
23288;SDS011;11813;50.834;4.280;2022-12-07T06:18:01;21.07;;;12.17;;
23288;SDS011;11813;50.834;4.280;2022-12-07T06:20:27;23.83;;;13.00;;
23288;SDS011;11813;50.834;4.280;2022-12-07T06:22:52;20.53;;;11.93;;
23288;SDS011;11813;50.834;4.280;2022-12-07T06:25:18;18.87;;;11.53;;
23288;SDS011;11813;50.834;4.280;2022-12-07T06:27:44;20.73;;;12.50;;
23288;SDS011;11813;50.834;4.280;2022-12-07T06:30:09;18.83;;;12.83;;
23288;SDS011;11813;50.834;4.280;2022-12-07T06:32:35;20.07;;;13.43;;
23288;SDS011;11813;50.834;4.280;2022-12-07T06:35:02;18.90;;;13.07;;
23288;SDS011;11813;50.834;4.280;2022-12-07T06:37:28;22.23;;;14.03;;
23288;SDS011;11813;50.834;4.280;2022-12-07T06:39:54;15.87;;;12.17;;
23288;SDS011;11813;50.834;4.280;2022-12-07T06:42:20;23.83;;;11.30;;
23288;SDS011;11813;50.834;4.280;2022-12-07T06:44:46;16.83;;;11.63;;
23288;SDS011;11813;50.834;4.280;2022-12-07T06:47:11;17.73;;;11.47;;
23288;SDS011;11813;50.834;4.280;2022-12-07T06:49:37;18.30;;;11.03;;
23288;SDS011;11813;50.834;4.280;2022-12-07T06:52:02;17.53;;;11.57;;
23288;SDS011;11813;50.834;4.280;2022-12-07T06:54:29;15.50;;;11.83;;
23288;SDS011;11813;50.834;4.280;2022-12-07T06:56:55;16.27;;;11.10;;
23288;SDS011;11813;50.834;4.280;2022-12-07T06:59:21;15.77;;;12.23;;
23288;SDS011;11813;50.834;4.280;2022-12-07T07:01:46;16.83;;;11.23;;
23288;SDS011;11813;50.834;4.280;2022-12-07T07:04:12;20.27;;;12.47;;
23288;SDS011;11813;50.834;4.280;2022-12-07T07:06:38;18.07;;;11.50;;
23288;SDS011;11813;50.834;4.280;2022-12-07T07:09:03;18.90;;;11.90;;
23288;SDS011;11813;50.834;4.280;2022-12-07T07:11:29;18.33;;;12.17;;
23288;SDS011;11813;50.834;4.280;2022-12-07T07:13:54;14.53;;;10.73;;
23288;SDS011;11813;50.834;4.280;2022-12-07T07:16:22;18.47;;;11.80;;
23288;SDS011;11813;50.834;4.280;2022-12-07T07:18:48;18.27;;;11.70;;
23288;SDS011;11813;50.834;4.280;2022-12-07T07:21:14;17.27;;;11.93;;
23288;SDS011;11813;50.834;4.280;2022-12-07T07:23:40;18.33;;;12.07;;
23288;SDS011;11813;50.834;4.280;2022-12-07T07:26:06;17.90;;;11.40;;
23288;SDS011;11813;50.834;4.280;2022-12-07T07:28:31;16.03;;;11.70;;
23288;SDS011;11813;50.834;4.280;2022-12-07T07:30:57;17.63;;;11.77;;
23288;SDS011;11813;50.834;4.280;2022-12-07T07:33:22;19.23;;;12.43;;
23288;SDS011;11813;50.834;4.280;2022-12-07T07:35:48;19.30;;;12.10;;
23288;SDS011;11813;50.834;4.280;2022-12-07T07:38:14;20.30;;;11.80;;
23288;SDS011;11813;50.834;4.280;2022-12-07T07:40:39;17.17;;;11.37;;
23288;SDS011;11813;50.834;4.280;2022-12-07T07:43:05;18.87;;;12.50;;
23288;SDS011;11813;50.834;4.280;2022-12-07T07:45:31;18.77;;;11.60;;
23288;SDS011;11813;50.834;4.280;2022-12-07T07:47:56;15.57;;;11.37;;
23288;SDS011;11813;50.834;4.280;2022-12-07T07:50:22;16.23;;;11.60;;
23288;SDS011;11813;50.834;4.280;2022-12-07T07:52:48;18.70;;;13.13;;
23288;SDS011;11813;50.834;4.280;2022-12-07T07:55:13;24.13;;;14.27;;
23288;SDS011;11813;50.834;4.280;2022-12-07T07:57:40;20.67;;;13.83;;
23288;SDS011;11813;50.834;4.280;2022-12-07T08:00:07;21.30;;;14.37;;
23288;SDS011;11813;50.834;4.280;2022-12-07T08:02:35;19.23;;;13.40;;
23288;SDS011;11813;50.834;4.280;2022-12-07T08:05:00;19.57;;;13.17;;
23288;SDS011;11813;50.834;4.280;2022-12-07T08:07:26;19.80;;;12.60;;
23288;SDS011;11813;50.834;4.280;2022-12-07T08:09:53;25.90;;;13.37;;
23288;SDS011;11813;50.834;4.280;2022-12-07T08:12:19;19.70;;;13.40;;
23288;SDS011;11813;50.834;4.280;2022-12-07T08:14:45;20.87;;;13.77;;
23288;SDS011;11813;50.834;4.280;2022-12-07T08:17:10;26.20;;;13.13;;
23288;SDS011;11813;50.834;4.280;2022-12-07T08:19:37;18.80;;;13.23;;
23288;SDS011;11813;50.834;4.280;2022-12-07T08:22:03;28.57;;;13.97;;
23288;SDS011;11813;50.834;4.280;2022-12-07T08:24:29;20.13;;;13.57;;
23288;SDS011;11813;50.834;4.280;2022-12-07T08:26:55;22.17;;;12.87;;
23288;SDS011;11813;50.834;4.280;2022-12-07T08:29:20;20.33;;;12.50;;
23288;SDS011;11813;50.834;4.280;2022-12-07T08:31:46;21.20;;;12.47;;
23288;SDS011;11813;50.834;4.280;2022-12-07T08:34:12;19.23;;;13.20;;
23288;SDS011;11813;50.834;4.280;2022-12-07T08:36:38;25.27;;;12.40;;
23288;SDS011;11813;50.834;4.280;2022-12-07T08:39:04;17.67;;;11.20;;
23288;SDS011;11813;50.834;4.280;2022-12-07T08:41:31;26.97;;;14.70;;
23288;SDS011;11813;50.834;4.280;2022-12-07T08:43:57;20.10;;;13.00;;
23288;SDS011;11813;50.834;4.280;2022-12-07T08:49:02;21.70;;;12.87;;
23288;SDS011;11813;50.834;4.280;2022-12-07T08:51:33;22.43;;;13.90;;
23288;SDS011;11813;50.834;4.280;2022-12-07T08:53:59;21.00;;;13.97;;
23288;SDS011;11813;50.834;4.280;2022-12-07T08:56:28;24.47;;;13.90;;
23288;SDS011;11813;50.834;4.280;2022-12-07T08:58:54;20.83;;;12.63;;
23288;SDS011;11813;50.834;4.280;2022-12-07T09:01:19;21.23;;;12.57;;
23288;SDS011;11813;50.834;4.280;2022-12-07T09:03:45;18.63;;;11.90;;
23288;SDS011;11813;50.834;4.280;2022-12-07T09:06:11;18.53;;;12.97;;
23288;SDS011;11813;50.834;4.280;2022-12-07T09:08:38;22.83;;;11.83;;
23288;SDS011;11813;50.834;4.280;2022-12-07T09:11:07;15.87;;;11.37;;
23288;SDS011;11813;50.834;4.280;2022-12-07T09:13:33;21.93;;;12.07;;
23288;SDS011;11813;50.834;4.280;2022-12-07T09:15:58;19.10;;;12.33;;
23288;SDS011;11813;50.834;4.280;2022-12-07T09:18:24;17.67;;;12.30;;
23288;SDS011;11813;50.834;4.280;2022-12-07T09:20:50;16.80;;;11.70;;
23288;SDS011;11813;50.834;4.280;2022-12-07T09:23:16;17.07;;;11.17;;
23288;SDS011;11813;50.834;4.280;2022-12-07T09:25:42;20.50;;;12.07;;
23288;SDS011;11813;50.834;4.280;2022-12-07T09:28:07;22.47;;;12.10;;
23288;SDS011;11813;50.834;4.280;2022-12-07T09:30:33;17.23;;;12.13;;
23288;SDS011;11813;50.834;4.280;2022-12-07T09:32:59;16.27;;;11.67;;
23288;SDS011;11813;50.834;4.280;2022-12-07T09:35:25;16.73;;;11.00;;
23288;SDS011;11813;50.834;4.280;2022-12-07T09:37:51;22.47;;;10.73;;
23288;SDS011;11813;50.834;4.280;2022-12-07T09:40:17;18.77;;;11.40;;
23288;SDS011;11813;50.834;4.280;2022-12-07T09:42:51;15.97;;;10.93;;
23288;SDS011;11813;50.834;4.280;2022-12-07T09:45:22;19.73;;;11.80;;
23288;SDS011;11813;50.834;4.280;2022-12-07T09:47:57;18.37;;;11.17;;
23288;SDS011;11813;50.834;4.280;2022-12-07T09:50:24;18.03;;;10.63;;
23288;SDS011;11813;50.834;4.280;2022-12-07T09:52:51;21.80;;;11.00;;
23288;SDS011;11813;50.834;4.280;2022-12-07T09:55:23;21.10;;;11.23;;
23288;SDS011;11813;50.834;4.280;2022-12-07T09:57:52;20.53;;;11.47;;
23288;SDS011;11813;50.834;4.280;2022-12-07T10:00:19;17.27;;;10.53;;
23288;SDS011;11813;50.834;4.280;2022-12-07T10:02:49;20.67;;;11.97;;
23288;SDS011;11813;50.834;4.280;2022-12-07T10:05:21;16.97;;;11.30;;
23288;SDS011;11813;50.834;4.280;2022-12-07T10:07:59;17.20;;;10.80;;
23288;SDS011;11813;50.834;4.280;2022-12-07T10:10:26;20.37;;;12.27;;
23288;SDS011;11813;50.834;4.280;2022-12-07T10:12:59;18.20;;;11.07;;
23288;SDS011;11813;50.834;4.280;2022-12-07T10:20:44;20.63;;;11.00;;
23288;SDS011;11813;50.834;4.280;2022-12-07T10:23:15;18.17;;;10.70;;
23288;SDS011;11813;50.834;4.280;2022-12-07T10:25:42;13.83;;;9.97;;
23288;SDS011;11813;50.834;4.280;2022-12-07T10:30:55;22.13;;;9.87;;
23288;SDS011;11813;50.834;4.280;2022-12-07T10:33:48;15.87;;;9.83;;
23288;SDS011;11813;50.834;4.280;2022-12-07T10:36:26;21.30;;;10.00;;
23288;SDS011;11813;50.834;4.280;2022-12-07T10:41:28;13.57;;;8.07;;
23288;SDS011;11813;50.834;4.280;2022-12-07T10:43:55;18.90;;;8.50;;
23288;SDS011;11813;50.834;4.280;2022-12-07T10:49:09;12.13;;;7.20;;
23288;SDS011;11813;50.834;4.280;2022-12-07T11:02:58;12.00;;;5.90;;
23288;SDS011;11813;50.834;4.280;2022-12-07T11:05:43;9.77;;;6.10;;
23288;SDS011;11813;50.834;4.280;2022-12-07T11:08:39;13.17;;;5.83;;
23288;SDS011;11813;50.834;4.280;2022-12-07T11:14:01;11.13;;;6.17;;
23288;SDS011;11813;50.834;4.280;2022-12-07T11:16:55;10.27;;;5.70;;
23288;SDS011;11813;50.834;4.280;2022-12-07T11:25:26;8.63;;;6.07;;
23288;SDS011;11813;50.834;4.280;2022-12-07T11:38:49;13.13;;;5.83;;
23288;SDS011;11813;50.834;4.280;2022-12-07T11:41:36;10.63;;;6.53;;
23288;SDS011;11813;50.834;4.280;2022-12-07T11:44:06;9.50;;;6.03;;
23288;SDS011;11813;50.834;4.280;2022-12-07T11:46:45;8.30;;;5.47;;
23288;SDS011;11813;50.834;4.280;2022-12-07T11:52:05;9.20;;;5.27;;
23288;SDS011;11813;50.834;4.280;2022-12-07T11:54:35;9.80;;;5.57;;
23288;SDS011;11813;50.834;4.280;2022-12-07T11:57:09;11.53;;;6.00;;
23288;SDS011;11813;50.834;4.280;2022-12-07T11:59:45;9.53;;;4.70;;
23288;SDS011;11813;50.834;4.280;2022-12-07T12:02:35;9.93;;;5.13;;
23288;SDS011;11813;50.834;4.280;2022-12-07T12:07:40;5.57;;;3.23;;
23288;SDS011;11813;50.834;4.280;2022-12-07T12:12:55;4.80;;;2.80;;
23288;SDS011;11813;50.834;4.280;2022-12-07T12:15:37;6.97;;;2.70;;
23288;SDS011;11813;50.834;4.280;2022-12-07T12:21:07;3.57;;;2.43;;
23288;SDS011;11813;50.834;4.280;2022-12-07T12:23:41;7.90;;;3.10;;
23288;SDS011;11813;50.834;4.280;2022-12-07T12:26:17;4.03;;;2.00;;
23288;SDS011;11813;50.834;4.280;2022-12-07T12:31:38;6.13;;;2.30;;
23288;SDS011;11813;50.834;4.280;2022-12-07T12:36:55;6.57;;;2.50;;
23288;SDS011;11813;50.834;4.280;2022-12-07T12:39:20;4.67;;;2.73;;
23288;SDS011;11813;50.834;4.280;2022-12-07T12:51:47;7.13;;;2.73;;
23288;SDS011;11813;50.834;4.280;2022-12-07T12:54:21;7.73;;;2.73;;
23288;SDS011;11813;50.834;4.280;2022-12-07T12:57:08;10.00;;;2.80;;
23288;SDS011;11813;50.834;4.280;2022-12-07T12:59:58;8.63;;;3.03;;
23288;SDS011;11813;50.834;4.280;2022-12-07T13:02:28;6.77;;;2.60;;
23288;SDS011;11813;50.834;4.280;2022-12-07T13:26:17;4.70;;;2.93;;
23288;SDS011;11813;50.834;4.280;2022-12-07T13:34:03;10.40;;;3.80;;
23288;SDS011;11813;50.834;4.280;2022-12-07T13:36:50;9.20;;;3.40;;
23288;SDS011;11813;50.834;4.280;2022-12-07T13:39:18;5.43;;;2.60;;
23288;SDS011;11813;50.834;4.280;2022-12-07T13:41:49;5.63;;;2.70;;
23288;SDS011;11813;50.834;4.280;2022-12-07T13:44:20;9.20;;;3.03;;
23288;SDS011;11813;50.834;4.280;2022-12-07T13:49:33;6.53;;;2.40;;
23288;SDS011;11813;50.834;4.280;2022-12-07T13:52:12;4.77;;;2.40;;
23288;SDS011;11813;50.834;4.280;2022-12-07T13:54:48;4.10;;;2.20;;
23288;SDS011;11813;50.834;4.280;2022-12-07T13:57:25;6.40;;;2.27;;
23288;SDS011;11813;50.834;4.280;2022-12-07T13:59:53;4.97;;;2.70;;
23288;SDS011;11813;50.834;4.280;2022-12-07T14:02:24;6.07;;;2.50;;
23288;SDS011;11813;50.834;4.280;2022-12-07T14:05:05;4.90;;;2.60;;
23288;SDS011;11813;50.834;4.280;2022-12-07T14:07:58;6.73;;;2.57;;
23288;SDS011;11813;50.834;4.280;2022-12-07T14:12:49;5.47;;;2.70;;
23288;SDS011;11813;50.834;4.280;2022-12-07T14:15:27;4.00;;;2.70;;
23288;SDS011;11813;50.834;4.280;2022-12-07T14:17:55;7.87;;;3.60;;
23288;SDS011;11813;50.834;4.280;2022-12-07T14:20:38;5.43;;;3.70;;
23288;SDS011;11813;50.834;4.280;2022-12-07T14:23:06;6.67;;;3.43;;
23288;SDS011;11813;50.834;4.280;2022-12-07T14:25:49;6.73;;;3.37;;
23288;SDS011;11813;50.834;4.280;2022-12-07T14:28:27;9.87;;;3.00;;
23288;SDS011;11813;50.834;4.280;2022-12-07T14:30:54;4.87;;;2.80;;
23288;SDS011;11813;50.834;4.280;2022-12-07T14:33:19;6.80;;;3.00;;
23288;SDS011;11813;50.834;4.280;2022-12-07T14:35:46;5.00;;;2.27;;
23288;SDS011;11813;50.834;4.280;2022-12-07T14:38:12;5.53;;;2.30;;
23288;SDS011;11813;50.834;4.280;2022-12-07T14:40:38;5.57;;;3.87;;
23288;SDS011;11813;50.834;4.280;2022-12-07T14:43:05;5.17;;;2.20;;
23288;SDS011;11813;50.834;4.280;2022-12-07T14:45:36;6.47;;;2.30;;
23288;SDS011;11813;50.834;4.280;2022-12-07T14:48:02;4.80;;;2.30;;
23288;SDS011;11813;50.834;4.280;2022-12-07T14:50:27;2.97;;;1.87;;
23288;SDS011;11813;50.834;4.280;2022-12-07T14:52:58;3.43;;;2.00;;
23288;SDS011;11813;50.834;4.280;2022-12-07T14:55:29;2.90;;;2.03;;
23288;SDS011;11813;50.834;4.280;2022-12-07T14:57:56;4.70;;;2.60;;
23288;SDS011;11813;50.834;4.280;2022-12-07T15:00:23;3.53;;;2.50;;
23288;SDS011;11813;50.834;4.280;2022-12-07T15:02:50;7.13;;;3.37;;
23288;SDS011;11813;50.834;4.280;2022-12-07T15:05:16;4.53;;;3.10;;
23288;SDS011;11813;50.834;4.280;2022-12-07T15:07:42;7.77;;;3.10;;
23288;SDS011;11813;50.834;4.280;2022-12-07T15:10:12;6.73;;;2.83;;
23288;SDS011;11813;50.834;4.280;2022-12-07T15:12:54;6.90;;;3.40;;
23288;SDS011;11813;50.834;4.280;2022-12-07T15:15:20;3.70;;;2.70;;
23288;SDS011;11813;50.834;4.280;2022-12-07T15:17:45;5.20;;;2.83;;
23288;SDS011;11813;50.834;4.280;2022-12-07T15:20:12;3.43;;;2.40;;
23288;SDS011;11813;50.834;4.280;2022-12-07T15:22:39;6.87;;;2.43;;
23288;SDS011;11813;50.834;4.280;2022-12-07T15:25:05;6.80;;;2.90;;
23288;SDS011;11813;50.834;4.280;2022-12-07T15:27:31;3.00;;;2.40;;
23288;SDS011;11813;50.834;4.280;2022-12-07T15:29:57;7.27;;;3.37;;
23288;SDS011;11813;50.834;4.280;2022-12-07T15:32:22;5.57;;;3.20;;
23288;SDS011;11813;50.834;4.280;2022-12-07T15:34:48;4.20;;;3.50;;
23288;SDS011;11813;50.834;4.280;2022-12-07T15:37:15;4.13;;;2.90;;
23288;SDS011;11813;50.834;4.280;2022-12-07T15:39:40;9.37;;;3.00;;
23288;SDS011;11813;50.834;4.280;2022-12-07T15:42:06;4.97;;;2.93;;
23288;SDS011;11813;50.834;4.280;2022-12-07T15:44:32;5.13;;;2.77;;
23288;SDS011;11813;50.834;4.280;2022-12-07T15:47:16;4.57;;;2.83;;
23288;SDS011;11813;50.834;4.280;2022-12-07T15:49:42;5.83;;;2.97;;
23288;SDS011;11813;50.834;4.280;2022-12-07T15:52:08;6.63;;;2.83;;
23288;SDS011;11813;50.834;4.280;2022-12-07T15:54:34;4.40;;;3.20;;
23288;SDS011;11813;50.834;4.280;2022-12-07T15:57:00;6.70;;;3.93;;
23288;SDS011;11813;50.834;4.280;2022-12-07T15:59:26;7.37;;;3.30;;
23288;SDS011;11813;50.834;4.280;2022-12-07T16:01:53;7.33;;;3.57;;
23288;SDS011;11813;50.834;4.280;2022-12-07T16:04:19;8.10;;;3.53;;
23288;SDS011;11813;50.834;4.280;2022-12-07T16:06:45;8.70;;;4.07;;
23288;SDS011;11813;50.834;4.280;2022-12-07T16:09:11;9.40;;;4.50;;
23288;SDS011;11813;50.834;4.280;2022-12-07T16:11:37;10.07;;;3.70;;
23288;SDS011;11813;50.834;4.280;2022-12-07T16:14:02;9.57;;;4.30;;
23288;SDS011;11813;50.834;4.280;2022-12-07T16:16:28;9.93;;;4.37;;
23288;SDS011;11813;50.834;4.280;2022-12-07T16:18:54;7.93;;;4.20;;
23288;SDS011;11813;50.834;4.280;2022-12-07T16:21:20;9.70;;;5.00;;
23288;SDS011;11813;50.834;4.280;2022-12-07T16:23:46;13.37;;;6.00;;
23288;SDS011;11813;50.834;4.280;2022-12-07T16:26:13;9.57;;;5.70;;
23288;SDS011;11813;50.834;4.280;2022-12-07T16:28:40;8.07;;;5.43;;
23288;SDS011;11813;50.834;4.280;2022-12-07T16:31:11;10.97;;;6.97;;
23288;SDS011;11813;50.834;4.280;2022-12-07T16:33:40;11.20;;;6.53;;
23288;SDS011;11813;50.834;4.280;2022-12-07T16:36:07;10.60;;;6.60;;
23288;SDS011;11813;50.834;4.280;2022-12-07T16:38:35;9.07;;;6.27;;
23288;SDS011;11813;50.834;4.280;2022-12-07T16:41:01;11.07;;;6.93;;
23288;SDS011;11813;50.834;4.280;2022-12-07T16:43:26;11.97;;;7.20;;
23288;SDS011;11813;50.834;4.280;2022-12-07T16:45:52;14.37;;;6.43;;
23288;SDS011;11813;50.834;4.280;2022-12-07T16:48:18;10.53;;;6.20;;